Audrey — PD9331 — position and weather

sailwx.info

Track history (hours):
 
Tides and Currents Weather Stations Pressure Air Temp Water Temp Dewpoint Dewpoint Depression Visibility Wind Speed Wind Dir Waves Ship Positions

Audrey

Last reported at 2014-Jul-29 00:33 UTC. Time now 2014-Jul-29 00:42 UTC.
Position N 47°32' E 007°40'.

Length 85 m; draft 2.3 m.

Type: Other ship. MMSI: 244660106.

Date/timePositionNaut miles runAvg speedWind from/ knotsBaromVisibWave heightAir tempDewpointWater temp
2014-Jul-29 00:33N 47°32' E 007°40'0 0.0
2014-Jul-28 23:33N 47°32' E 007°40'0 0.0
2014-Jul-28 22:33N 47°32' E 007°40'0 0.0
2014-Jul-28 21:33N 47°32' E 007°40'0 0.0
2014-Jul-28 20:33N 47°32' E 007°40'0 0.0
2014-Jul-28 19:33N 47°32' E 007°40'0 0.0
2014-Jul-28 18:33N 47°32' E 007°40'0 0.0
2014-Jul-28 17:33N 47°32' E 007°40'0 0.0
2014-Jul-28 16:33N 47°32' E 007°40'0 0.0
2014-Jul-28 15:33N 47°32' E 007°40'2 1.8
2014-Jul-28 14:33N 47°34' E 007°38'2 2.1
2014-Jul-28 13:33N 47°35' E 007°35'5 5.0
2014-Jul-28 12:33N 47°39' E 007°32'63 3.0
2014-Jul-27 15:14N 48°40' E 007°54'2 2.9
2014-Jul-27 14:33N 48°42' E 007°56'5 4.5
2014-Jul-27 13:33N 48°46' E 008°00'6 4.7
2014-Jul-27 12:12N 48°50' E 008°07'2 3.6
2014-Jul-27 11:33N 48°52' E 008°08'4 4.1
2014-Jul-27 10:33N 48°56' E 008°11'4 4.0
2014-Jul-27 09:33N 48°59' E 008°15'4 4.3
2014-Jul-27 08:33N 49°02' E 008°18'5 4.6
2014-Jul-27 07:33N 49°06' E 008°22'4 4.4
2014-Jul-27 06:34N 49°11' E 008°23'5 4.5
2014-Jul-27 05:33N 49°15' E 008°25'4 4.0
2014-Jul-27 04:32N 49°19' E 008°28'6 4.6
2014-Jul-27 03:14N 49°25' E 008°30'  
2014-Jul-24 04:28N 49°30' E 008°27'0 0.0
2014-Jul-24 03:30N 49°30' E 008°27'0 0.0
2014-Jul-24 02:25N 49°30' E 008°27'  
2014-Jul-19 05:23N 49°30' E 008°28'  
Track history (hours):
 
Tides and Currents Weather Stations Pressure Air Temp Water Temp Dewpoint Dewpoint Depression Visibility Wind Speed Wind Dir Waves Ship Positions

Audrey

Last reported at 2014-Jul-29 00:33 UTC. Time now 2014-Jul-29 00:42 UTC.
Position N 47°32' E 007°40'.

Length 85 m; draft 2.3 m.

Type: Other ship. MMSI: 244660106.

Date/timePositionNaut miles runAvg speedWind from/ knotsBaromVisibWave heightAir tempDewpointWater temp
2014-Jul-29 00:33N 47°32' E 007°40'0 0.0
2014-Jul-28 23:33N 47°32' E 007°40'0 0.0
2014-Jul-28 22:33N 47°32' E 007°40'0 0.0
2014-Jul-28 21:33N 47°32' E 007°40'0 0.0
2014-Jul-28 20:33N 47°32' E 007°40'0 0.0
2014-Jul-28 19:33N 47°32' E 007°40'0 0.0
2014-Jul-28 18:33N 47°32' E 007°40'0 0.0
2014-Jul-28 17:33N 47°32' E 007°40'0 0.0
2014-Jul-28 16:33N 47°32' E 007°40'0 0.0
2014-Jul-28 15:33N 47°32' E 007°40'2 1.8
2014-Jul-28 14:33N 47°34' E 007°38'2 2.1
2014-Jul-28 13:33N 47°35' E 007°35'5 5.0
2014-Jul-28 12:33N 47°39' E 007°32'63 3.0
2014-Jul-27 15:14N 48°40' E 007°54'2 2.9
2014-Jul-27 14:33N 48°42' E 007°56'5 4.5
2014-Jul-27 13:33N 48°46' E 008°00'6 4.7
2014-Jul-27 12:12N 48°50' E 008°07'2 3.6
2014-Jul-27 11:33N 48°52' E 008°08'4 4.1
2014-Jul-27 10:33N 48°56' E 008°11'4 4.0
2014-Jul-27 09:33N 48°59' E 008°15'4 4.3
2014-Jul-27 08:33N 49°02' E 008°18'5 4.6
2014-Jul-27 07:33N 49°06' E 008°22'4 4.4
2014-Jul-27 06:34N 49°11' E 008°23'5 4.5
2014-Jul-27 05:33N 49°15' E 008°25'4 4.0
2014-Jul-27 04:32N 49°19' E 008°28'6 4.6
2014-Jul-27 03:14N 49°25' E 008°30'  
2014-Jul-24 04:28N 49°30' E 008°27'0 0.0
2014-Jul-24 03:30N 49°30' E 008°27'0 0.0
2014-Jul-24 02:25N 49°30' E 008°27'  
2014-Jul-19 05:23N 49°30' E 008°28'  

Dump ship's entire track history